Map

Track Data

SID SEASON NUMBER BASIN SUBBASIN NAME ISO_TIME NATURE LAT LON WMO_WIND WMO_PRES WMO_AGENCY TRACK_TYPE DIST2LAND LANDFALL IFLAG USA_AGENCY USA_ATCF_ID USA_LAT USA_LON USA_RECORD USA_STATUS USA_WIND USA_PRES USA_SSHS USA_R34_NE USA_R34_SE USA_R34_SW USA_R34_NW USA_R50_NE USA_R50_SE USA_R50_SW USA_R50_NW USA_R64_NE USA_R64_SE USA_R64_SW USA_R64_NW USA_POCI USA_ROCI USA_RMW USA_EYE TOKYO_LAT TOKYO_LON TOKYO_GRADE TOKYO_WIND TOKYO_PRES TOKYO_R50_DIR TOKYO_R50_LONG TOKYO_R50_SHORT TOKYO_R30_DIR TOKYO_R30_LONG TOKYO_R30_SHORT TOKYO_LAND CMA_LAT CMA_LON CMA_CAT CMA_WIND CMA_PRES HKO_LAT HKO_LON HKO_CAT HKO_WIND HKO_PRES NEWDELHI_LAT NEWDELHI_LON NEWDELHI_GRADE NEWDELHI_WIND NEWDELHI_PRES NEWDELHI_CI NEWDELHI_DP NEWDELHI_POCI REUNION_LAT REUNION_LON REUNION_TYPE REUNION_WIND REUNION_PRES REUNION_TNUM REUNION_CI REUNION_RMW REUNION_R34_NE REUNION_R34_SE REUNION_R34_SW REUNION_R34_NW REUNION_R50_NE REUNION_R50_SE REUNION_R50_SW REUNION_R50_NW REUNION_R64_NE REUNION_R64_SE REUNION_R64_SW REUNION_R64_NW BOM_LAT BOM_LON BOM_TYPE BOM_WIND BOM_PRES BOM_TNUM BOM_CI BOM_RMW BOM_R34_NE BOM_R34_SE BOM_R34_SW BOM_R34_NW BOM_R50_NE BOM_R50_SE BOM_R50_SW BOM_R50_NW BOM_R64_NE BOM_R64_SE BOM_R64_SW BOM_R64_NW BOM_ROCI BOM_POCI BOM_EYE BOM_POS_METHOD BOM_PRES_METHOD NADI_LAT NADI_LON NADI_CAT NADI_WIND NADI_PRES WELLINGTON_LAT WELLINGTON_LON WELLINGTON_WIND WELLINGTON_PRES DS824_LAT DS824_LON DS824_STAGE DS824_WIND DS824_PRES TD9636_LAT TD9636_LON TD9636_STAGE TD9636_WIND TD9636_PRES TD9635_LAT TD9635_LON TD9635_WIND TD9635_PRES TD9635_ROCI NEUMANN_LAT NEUMANN_LON NEUMANN_CLASS NEUMANN_WIND NEUMANN_PRES MLC_LAT MLC_LON MLC_CLASS MLC_WIND MLC_PRES USA_GUST BOM_GUST BOM_GUST_PER REUNION_GUST REUNION_GUST_PER USA_SEAHGT USA_SEARAD_NE USA_SEARAD_SE USA_SEARAD_SW USA_SEARAD_NW STORM_SPEED STORM_DIR
1912299N15071 1912 58 NI AS NOT_NAMED 1912-10-25 00:00:00 TS 14.7000 71.0000 main 306 306 _________O____ -1 14.7000 71.0000 TC 34 0 0
1912299N15071 1912 58 NI AS NOT_NAMED 1912-10-25 03:00:00 TS 14.7000 71.0000 main 306 306 _________PO___ -1 14.7000 71.0000 TC 36 14.7000 71.0000 2 0 0
1912299N15071 1912 58 NI AS NOT_NAMED 1912-10-25 06:00:00 TS 14.7007 70.9813 main 306 306 _________OP___ -1 14.7000 71.0000 TC 39 14.7019 70.9532 2 0 272
1912299N15071 1912 58 NI AS NOT_NAMED 1912-10-25 09:00:00 TS 14.7013 70.9679 main 306 306 _________PP___ -1 14.7000 71.0000 TC 42 14.7030 70.9251 2 0 0
1912299N15071 1912 58 NI AS NOT_NAMED 1912-10-25 12:00:00 TS 14.7013 70.9672 main 306 306 _________OP___ -1 14.7000 71.0000 TC 45 14.7026 70.9344 2 0 92
1912299N15071 1912 58 NI AS NOT_NAMED 1912-10-25 15:00:00 TS 14.7000 71.0000 main 306 296 _________PO___ -1 14.7000 71.0000 TC 45 14.7000 71.0000 3 1 92
1912299N15071 1912 58 NI AS NOT_NAMED 1912-10-25 18:00:00 TS 14.6976 71.0609 main 296 286 _________OP___ -1 14.7000 71.0000 TC 45 14.6951 71.1218 3 1 92
1912299N15071 1912 58 NI AS NOT_NAMED 1912-10-25 21:00:00 TS 14.6954 71.1536 main 286 286 _________PP___ -1 14.6998 71.0825 TC 45 14.6909 71.2248 3 0 93
1912299N15071 1912 58 NI AS NOT_NAMED 1912-10-26 00:00:00 TS 14.6957 71.1077 main 296 296 _________OP___ -1 14.7000 71.0000 TC 45 14.6913 71.2154 3 3 270
1912299N15071 1912 58 NI AS NOT_NAMED 1912-10-26 03:00:00 TS 14.6961 70.7962 main 327 327 _________PO___ -1 14.6922 70.5924 TC 45 14.7000 71.0000 3 9 270
1912299N15071 1912 58 NI AS NOT_NAMED 1912-10-26 06:00:00 TS 14.7033 70.1867 main 387 387 _________OP___ -1 14.7000 69.9000 TC 45 14.7067 70.4733 3 14 271
1912299N15071 1912 58 NI AS NOT_NAMED 1912-10-26 09:00:00 TS 14.7285 69.3634 main 463 463 _________PP___ -1 14.7355 68.9875 TC 45 14.7215 69.7392 3 17 272
1912299N15071 1912 58 NI AS NOT_NAMED 1912-10-26 12:00:00 TS 14.7752 68.4428 main 558 558 _________OP___ -1 14.8000 68.0000 TC 45 14.7503 68.8856 3 17 274
1912299N15071 1912 58 NI AS NOT_NAMED 1912-10-26 15:00:00 TS 14.8460 67.5888 main 639 639 _________PO___ -1 14.8920 67.1775 TC 45 14.8000 68.0000 3 16 276
1912299N15071 1912 58 NI AS NOT_NAMED 1912-10-26 18:00:00 TS 14.9436 66.7771 main 718 718 _________OP___ -1 15.0000 66.4000 TC 45 14.8872 67.1542 3 16 277
1912299N15071 1912 58 NI AS NOT_NAMED 1912-10-26 21:00:00 TS 15.0507 65.9255 main 807 807 _________PP___ -1 15.1077 65.5476 TC 45 14.9937 66.3035 3 16 278
1912299N15071 1912 58 NI AS NOT_NAMED 1912-10-27 00:00:00 TS 15.1515 65.1505 main 845 838 _________OP___ -1 15.2000 64.8000 TC 45 15.1031 65.5009 3 13 278
1912299N15071 1912 58 NI AS NOT_NAMED 1912-10-27 03:00:00 TS 15.2285 64.5450 main 829 787 _________PO___ -1 15.2571 64.2899 TC 45 15.2000 64.8000 3 10 277
1912299N15071 1912 58 NI AS NOT_NAMED 1912-10-27 06:00:00 TS 15.2814 64.0814 main 787 751 _________OP___ -1 15.3000 63.9000 TC 45 15.2628 64.2629 3 9 277
1912299N15071 1912 58 NI AS NOT_NAMED 1912-10-27 09:00:00 TS 15.3315 63.6611 main 751 709 _________PP___ -1 15.3499 63.4925 TC 45 15.3131 63.8297 3 8 277
1912299N15071 1912 58 NI AS NOT_NAMED 1912-10-27 12:00:00 TS 15.3785 63.2783 main 709 675 _________OP___ -1 15.4000 63.1000 TC 45 15.3569 63.4567 3 7 277
1912299N15071 1912 58 NI AS NOT_NAMED 1912-10-27 15:00:00 TS 15.4250 62.9000 main 675 634 _________PO___ -1 15.4499 62.7000 TC 45 15.4000 63.1000 3 8 278
1912299N15071 1912 58 NI AS NOT_NAMED 1912-10-27 18:00:00 TS 15.4811 62.4863 main 634 601 _________OP___ -1 15.5000 62.3000 TC 45 15.4621 62.6726 3 8 278
1912299N15071 1912 58 NI AS NOT_NAMED 1912-10-27 21:00:00 TS 15.5400 62.0701 main 601 562 _________PP___ -1 15.5575 61.8850 TC 45 15.5225 62.2552 3 8 278
1912299N15071 1912 58 NI AS NOT_NAMED 1912-10-28 00:00:00 TS 15.5858 61.6801 main 562 539 _________OP___ -1 15.6000 61.5000 TC 45 15.5716 61.8601 3 7 275
1912299N15071 1912 58 NI AS NOT_NAMED 1912-10-28 03:00:00 TS 15.6075 61.3387 main 531 517 _________PO___ -1 15.6149 61.1775 TC 45 15.6000 61.5000 3 6 271
1912299N15071 1912 58 NI AS NOT_NAMED 1912-10-28 06:00:00 TS 15.5981 61.0424 main 510 496 _________OP___ -1 15.6000 60.9000 TC 45 15.5962 61.1849 3 5 265
1912299N15071 1912 58 NI AS NOT_NAMED 1912-10-28 09:00:00 TS 15.5610 60.7737 main 496 485 _________PP___ -1 15.5499 60.6425 TC 45 15.5721 60.9048 3 5 261
1912299N15071 1912 58 NI AS NOT_NAMED 1912-10-28 12:00:00 TS 15.5185 60.5237 main 485 473 _________OP___ -1 15.5000 60.4000 TC 45 15.5369 60.6474 3 5 263
1912299N15071 1912 58 NI AS NOT_NAMED 1912-10-28 15:00:00 TS 15.5000 60.2750 main 473 456 _________PO___ -1 15.5000 60.1501 TC 45 15.5000 60.4000 3 5 267
1912299N15071 1912 58 NI AS NOT_NAMED 1912-10-28 18:00:00 TS 15.4975 60.0337 main 456 445 _________OP___ -1 15.5000 59.9000 TC 45 15.4950 60.1674 3 5 267
1912299N15071 1912 58 NI AS NOT_NAMED 1912-10-28 21:00:00 TS 15.4759 59.8052 main 445 439 _________PP___ -1 15.4649 59.6725 TC 45 15.4870 59.9379 3 5 262
1912299N15071 1912 58 NI AS NOT_NAMED 1912-10-29 00:00:00 TS 15.4303 59.5447 main 432 409 _________OP___ -1 15.4000 59.4000 TC 45 15.4605 59.6894 3 6 259
1912299N15071 1912 58 NI AS NOT_NAMED 1912-10-29 03:00:00 TS 15.3613 59.2113 main 409 387 _________PO___ -1 15.3225 59.0226 TC 45 15.4000 59.4000 3 7 255
1912299N15071 1912 58 NI AS NOT_NAMED 1912-10-29 06:00:00 TS 15.2451 58.8194 main 395 379 _________OP___ -1 15.2000 58.6000 TC 45 15.2902 59.0389 3 8 250
1912299N15071 1912 58 NI AS NOT_NAMED 1912-10-29 09:00:00 TS 15.0763 58.4186 main 379 371 _________PP___ -1 15.0074 58.1999 TC 45 15.1452 58.6372 3 9 246
1912299N15071 1912 58 NI AS NOT_NAMED 1912-10-29 12:00:00 TS 14.8888 58.0085 main 376 371 _________OP___ -1 14.8000 57.8000 TC 45 14.9776 58.2170 3 9 246
1912299N15071 1912 58 NI AS NOT_NAMED 1912-10-29 15:00:00 TS 14.7250 57.5963 main 372 358 _________PO___ -1 14.6500 57.3926 TC 41 14.8000 57.8000 3 8 247
1912299N15071 1912 58 NI AS NOT_NAMED 1912-10-29 18:00:00 TS 14.5702 57.2304 main 354 328 _________OP___ -1 14.5000 57.0000 TC 37 14.6229 57.4031 3 8 245
1912299N15071 1912 58 NI AS NOT_NAMED 1912-10-29 21:00:00 TS 14.3936 56.8708 main 328 289 _________PP___ -1 14.3126 56.6398 TC 33 14.4477 57.0249 3 8 242
1912299N15071 1912 58 NI AS NOT_NAMED 1912-10-30 00:00:00 TS 14.2158 56.5394 main 280 257 _________OP___ -1 14.1000 56.3000 TC 30 14.2737 56.6592 3 6 242
1912299N15071 1912 58 NI AS NOT_NAMED 1912-10-30 03:00:00 NR 14.1000 56.3000 main 257 __________O___ -1 TC 14.1000 56.3000 1 5 243

About IBTrACS Database

This database is a web-friendly format of International Best Track Archive for Climate Stewardship (IBTrACS), a global best track data archive curated by NOAA dating back to 1842.

Updated: 2021-11-26